world map with LTBI marked

LTBI - Airport

This information may not be accurate or current and is not valid for navigation or flight planning. No warranty of fitness for any purpose is made or implied.

flag of Turkey

Donate via PayPal

Additional information is available on the NEW Great Circle Mapper

Location
City:  Eskisehir, Eskisehir, Turkey
ICAO / IATA:LTBI / ESK

Details
Type:Airport (Aerodrome, Airfield)
Use:Military
Latitude:39°47'03"N (39.784138)
Longitude:30°34'56"E (30.582111)
Datum:WGS 1984
Elevation:2581 ft (787 m)
Runways:1
Longest:10006 × 150 ft (3050 × 45.5 m)

Time
Timezone:UTC+3 (DST+5)
Local Time:

Weather
METAR:LTBI  132150Z 24004KT 9999 FEW040 02/01 Q1024 NOSIG RMK RWY09 25005KT
TAF:LTBI  (expired)

Related Locations
Nearby:
Farthest:RVV: 11330 mi / 18233 km
Raivavae, Tubuai Islands, Austral Islands, PF

Find:

   beyond  
but within

Other Information
Maps:
Sources:

  


 


Great Circle Mapper   Great Circle Mapper
Great Circle Mapper FAQ   Great Circle Mapper FAQ
  Karl's Home Page
KLSē   KLSē Home
   GC on Facebook
Airlines of the World   Airlines of the World
Donate via PayPal


Copyright © 2004-2018, Karl L. Swartz. All rights reserved.
All trademarks mentioned herein belong to their respective owners.

Please see credits for attribution and copyright information.

Karl Swartz <karl@kls2.com>
  Powered by FreeBSD
Valid HTML 4.01!
Labeled with ICRA
hCard Microformat
Geo Microformat